sensor_id;sensor_type;location;lat;lon;timestamp;temperature;humidity
20957;DHT22;10637;47.970;7.830;2023-04-19T00:01:07;10.30;99.90
20957;DHT22;10637;47.970;7.830;2023-04-19T00:06:09;10.30;99.90
20957;DHT22;10637;47.970;7.830;2023-04-19T00:11:11;10.10;99.90
20957;DHT22;10637;47.970;7.830;2023-04-19T00:16:13;10.10;99.90
20957;DHT22;10637;47.970;7.830;2023-04-19T00:21:14;9.80;99.90
20957;DHT22;10637;47.970;7.830;2023-04-19T00:26:17;9.50;99.90
20957;DHT22;10637;47.970;7.830;2023-04-19T00:31:19;9.70;99.90
20957;DHT22;10637;47.970;7.830;2023-04-19T00:36:20;9.70;99.90
20957;DHT22;10637;47.970;7.830;2023-04-19T00:41:22;9.60;99.90
20957;DHT22;10637;47.970;7.830;2023-04-19T00:46:24;9.60;99.90
20957;DHT22;10637;47.970;7.830;2023-04-19T00:51:27;9.60;99.90
20957;DHT22;10637;47.970;7.830;2023-04-19T00:56:29;9.40;99.90
20957;DHT22;10637;47.970;7.830;2023-04-19T01:01:32;9.30;99.90
20957;DHT22;10637;47.970;7.830;2023-04-19T01:06:35;9.20;99.90
20957;DHT22;10637;47.970;7.830;2023-04-19T01:11:37;9.20;99.90
20957;DHT22;10637;47.970;7.830;2023-04-19T01:16:39;9.10;99.90
20957;DHT22;10637;47.970;7.830;2023-04-19T01:21:40;8.90;99.90
20957;DHT22;10637;47.970;7.830;2023-04-19T01:26:44;9.00;99.90
20957;DHT22;10637;47.970;7.830;2023-04-19T01:31:46;8.70;99.90
20957;DHT22;10637;47.970;7.830;2023-04-19T01:36:51;8.50;99.90
20957;DHT22;10637;47.970;7.830;2023-04-19T01:41:53;8.50;99.90
20957;DHT22;10637;47.970;7.830;2023-04-19T01:46:55;8.60;99.90
20957;DHT22;10637;47.970;7.830;2023-04-19T01:51:57;8.40;99.90
20957;DHT22;10637;47.970;7.830;2023-04-19T01:56:59;8.40;99.90
20957;DHT22;10637;47.970;7.830;2023-04-19T02:02:00;8.30;99.90
20957;DHT22;10637;47.970;7.830;2023-04-19T02:07:02;8.20;99.90
20957;DHT22;10637;47.970;7.830;2023-04-19T02:12:04;8.10;99.90
20957;DHT22;10637;47.970;7.830;2023-04-19T02:17:06;8.10;99.90
20957;DHT22;10637;47.970;7.830;2023-04-19T02:22:08;8.10;99.90
20957;DHT22;10637;47.970;7.830;2023-04-19T02:27:10;8.00;99.90
20957;DHT22;10637;47.970;7.830;2023-04-19T02:32:12;8.00;99.90
20957;DHT22;10637;47.970;7.830;2023-04-19T02:37:14;7.80;99.90
20957;DHT22;10637;47.970;7.830;2023-04-19T02:42:15;7.80;99.90
20957;DHT22;10637;47.970;7.830;2023-04-19T02:47:17;7.70;99.90
20957;DHT22;10637;47.970;7.830;2023-04-19T02:52:19;7.60;99.90
20957;DHT22;10637;47.970;7.830;2023-04-19T02:57:21;7.60;99.90
20957;DHT22;10637;47.970;7.830;2023-04-19T03:02:23;7.50;99.90
20957;DHT22;10637;47.970;7.830;2023-04-19T03:07:25;7.50;99.90
20957;DHT22;10637;47.970;7.830;2023-04-19T03:12:26;7.50;99.90
20957;DHT22;10637;47.970;7.830;2023-04-19T03:17:28;7.40;99.90
20957;DHT22;10637;47.970;7.830;2023-04-19T03:22:30;7.20;99.90
20957;DHT22;10637;47.970;7.830;2023-04-19T03:27:34;7.10;99.90
20957;DHT22;10637;47.970;7.830;2023-04-19T03:32:37;7.10;99.90
20957;DHT22;10637;47.970;7.830;2023-04-19T03:37:39;6.80;99.90
20957;DHT22;10637;47.970;7.830;2023-04-19T03:42:40;6.80;99.90
20957;DHT22;10637;47.970;7.830;2023-04-19T03:47:42;7.00;99.90
20957;DHT22;10637;47.970;7.830;2023-04-19T03:52:44;6.80;99.90
20957;DHT22;10637;47.970;7.830;2023-04-19T03:57:46;6.70;99.90
20957;DHT22;10637;47.970;7.830;2023-04-19T04:02:47;6.50;99.90
20957;DHT22;10637;47.970;7.830;2023-04-19T04:07:49;6.50;99.90
20957;DHT22;10637;47.970;7.830;2023-04-19T04:12:51;6.50;99.90
20957;DHT22;10637;47.970;7.830;2023-04-19T04:17:53;6.50;99.90
20957;DHT22;10637;47.970;7.830;2023-04-19T04:22:55;6.60;99.90
20957;DHT22;10637;47.970;7.830;2023-04-19T04:27:56;6.70;99.90
20957;DHT22;10637;47.970;7.830;2023-04-19T04:32:58;6.50;99.90
20957;DHT22;10637;47.970;7.830;2023-04-19T04:38:00;6.60;99.90
20957;DHT22;10637;47.970;7.830;2023-04-19T04:43:22;6.70;99.90
20957;DHT22;10637;47.970;7.830;2023-04-19T04:48:24;6.50;99.90
20957;DHT22;10637;47.970;7.830;2023-04-19T04:53:26;6.80;99.90
20957;DHT22;10637;47.970;7.830;2023-04-19T04:58:28;6.80;99.90
20957;DHT22;10637;47.970;7.830;2023-04-19T05:03:30;7.00;99.90
20957;DHT22;10637;47.970;7.830;2023-04-19T05:08:32;7.10;99.90
20957;DHT22;10637;47.970;7.830;2023-04-19T05:13:34;7.20;99.90
20957;DHT22;10637;47.970;7.830;2023-04-19T05:18:36;7.40;99.90
20957;DHT22;10637;47.970;7.830;2023-04-19T05:23:38;7.60;99.90
20957;DHT22;10637;47.970;7.830;2023-04-19T05:28:40;7.80;99.90
20957;DHT22;10637;47.970;7.830;2023-04-19T05:33:42;8.10;99.90
20957;DHT22;10637;47.970;7.830;2023-04-19T05:38:44;8.20;99.90
20957;DHT22;10637;47.970;7.830;2023-04-19T05:43:46;8.40;99.90
20957;DHT22;10637;47.970;7.830;2023-04-19T05:48:48;8.50;99.90
20957;DHT22;10637;47.970;7.830;2023-04-19T05:53:50;8.60;99.90
20957;DHT22;10637;47.970;7.830;2023-04-19T05:58:54;8.70;99.90
20957;DHT22;10637;47.970;7.830;2023-04-19T06:04:00;8.60;99.90
20957;DHT22;10637;47.970;7.830;2023-04-19T06:09:02;8.70;99.90
20957;DHT22;10637;47.970;7.830;2023-04-19T06:14:04;8.80;99.90
20957;DHT22;10637;47.970;7.830;2023-04-19T06:19:07;8.90;99.90
20957;DHT22;10637;47.970;7.830;2023-04-19T06:24:08;8.90;99.90
20957;DHT22;10637;47.970;7.830;2023-04-19T06:29:10;9.00;99.90
20957;DHT22;10637;47.970;7.830;2023-04-19T06:34:12;9.30;99.90
20957;DHT22;10637;47.970;7.830;2023-04-19T06:39:14;9.30;99.90
20957;DHT22;10637;47.970;7.830;2023-04-19T06:44:16;9.60;99.90
20957;DHT22;10637;47.970;7.830;2023-04-19T06:49:18;9.80;99.90
20957;DHT22;10637;47.970;7.830;2023-04-19T06:54:20;10.00;99.90
20957;DHT22;10637;47.970;7.830;2023-04-19T06:59:22;10.10;99.90
20957;DHT22;10637;47.970;7.830;2023-04-19T07:04:25;10.30;99.90
20957;DHT22;10637;47.970;7.830;2023-04-19T07:09:28;10.60;99.90
20957;DHT22;10637;47.970;7.830;2023-04-19T07:14:30;10.70;99.90
20957;DHT22;10637;47.970;7.830;2023-04-19T07:19:31;10.70;99.90
20957;DHT22;10637;47.970;7.830;2023-04-19T07:24:33;10.90;99.90
20957;DHT22;10637;47.970;7.830;2023-04-19T07:29:35;11.10;99.90
20957;DHT22;10637;47.970;7.830;2023-04-19T07:34:37;11.20;99.90
20957;DHT22;10637;47.970;7.830;2023-04-19T07:39:39;11.40;99.90
20957;DHT22;10637;47.970;7.830;2023-04-19T07:44:41;11.30;99.90
20957;DHT22;10637;47.970;7.830;2023-04-19T07:49:43;11.30;99.90
20957;DHT22;10637;47.970;7.830;2023-04-19T07:54:45;11.40;99.90
20957;DHT22;10637;47.970;7.830;2023-04-19T07:59:46;11.50;99.90
20957;DHT22;10637;47.970;7.830;2023-04-19T08:04:48;11.70;99.90
20957;DHT22;10637;47.970;7.830;2023-04-19T08:09:52;11.70;99.90
20957;DHT22;10637;47.970;7.830;2023-04-19T08:14:54;11.80;99.90
20957;DHT22;10637;47.970;7.830;2023-04-19T08:20:09;11.90;99.90
20957;DHT22;10637;47.970;7.830;2023-04-19T08:25:12;12.20;99.90
20957;DHT22;10637;47.970;7.830;2023-04-19T08:30:14;12.30;99.90
20957;DHT22;10637;47.970;7.830;2023-04-19T08:35:16;12.30;99.90
20957;DHT22;10637;47.970;7.830;2023-04-19T08:40:18;12.40;99.90
20957;DHT22;10637;47.970;7.830;2023-04-19T08:45:20;12.50;99.90
20957;DHT22;10637;47.970;7.830;2023-04-19T08:50:30;12.50;99.90
20957;DHT22;10637;47.970;7.830;2023-04-19T08:55:46;12.60;99.90
20957;DHT22;10637;47.970;7.830;2023-04-19T09:01:08;12.80;99.90
20957;DHT22;10637;47.970;7.830;2023-04-19T09:06:23;12.90;99.90
20957;DHT22;10637;47.970;7.830;2023-04-19T09:11:37;12.90;99.90
20957;DHT22;10637;47.970;7.830;2023-04-19T09:16:39;13.00;99.90
20957;DHT22;10637;47.970;7.830;2023-04-19T09:21:42;13.30;99.90
20957;DHT22;10637;47.970;7.830;2023-04-19T09:26:53;13.40;99.90
20957;DHT22;10637;47.970;7.830;2023-04-19T09:31:58;13.60;99.90
20957;DHT22;10637;47.970;7.830;2023-04-19T09:37:13;13.60;99.90
20957;DHT22;10637;47.970;7.830;2023-04-19T09:42:44;13.70;99.90
20957;DHT22;10637;47.970;7.830;2023-04-19T09:48:04;13.70;99.90
20957;DHT22;10637;47.970;7.830;2023-04-19T09:53:09;13.70;99.90
20957;DHT22;10637;47.970;7.830;2023-04-19T09:58:13;13.70;99.90
20957;DHT22;10637;47.970;7.830;2023-04-19T10:03:16;13.60;99.90
20957;DHT22;10637;47.970;7.830;2023-04-19T10:08:18;13.60;99.90
20957;DHT22;10637;47.970;7.830;2023-04-19T10:13:21;13.80;99.90
20957;DHT22;10637;47.970;7.830;2023-04-19T10:18:27;13.80;99.90
20957;DHT22;10637;47.970;7.830;2023-04-19T10:23:30;13.80;99.90
20957;DHT22;10637;47.970;7.830;2023-04-19T10:28:34;13.80;99.90
20957;DHT22;10637;47.970;7.830;2023-04-19T10:33:37;13.80;99.90
20957;DHT22;10637;47.970;7.830;2023-04-19T10:44:07;14.10;99.90
20957;DHT22;10637;47.970;7.830;2023-04-19T10:49:09;14.20;99.90
20957;DHT22;10637;47.970;7.830;2023-04-19T10:54:30;14.20;99.90
20957;DHT22;10637;47.970;7.830;2023-04-19T10:59:36;14.20;99.90
20957;DHT22;10637;47.970;7.830;2023-04-19T11:09:52;14.10;99.90
20957;DHT22;10637;47.970;7.830;2023-04-19T11:14:56;14.10;99.90
20957;DHT22;10637;47.970;7.830;2023-04-19T11:25:24;14.20;99.90
20957;DHT22;10637;47.970;7.830;2023-04-19T11:30:29;14.10;99.90
20957;DHT22;10637;47.970;7.830;2023-04-19T11:35:31;14.20;99.90
20957;DHT22;10637;47.970;7.830;2023-04-19T11:40:33;14.40;99.90
20957;DHT22;10637;47.970;7.830;2023-04-19T11:45:36;14.30;99.90
20957;DHT22;10637;47.970;7.830;2023-04-19T11:50:42;14.40;99.90
20957;DHT22;10637;47.970;7.830;2023-04-19T11:55:55;14.60;99.90
20957;DHT22;10637;47.970;7.830;2023-04-19T12:01:09;14.70;99.90
20957;DHT22;10637;47.970;7.830;2023-04-19T12:06:14;14.60;99.90
20957;DHT22;10637;47.970;7.830;2023-04-19T12:11:19;14.60;99.90
20957;DHT22;10637;47.970;7.830;2023-04-19T12:16:28;14.50;99.90
20957;DHT22;10637;47.970;7.830;2023-04-19T12:21:30;14.50;99.90
20957;DHT22;10637;47.970;7.830;2023-04-19T12:26:33;14.50;99.90
20957;DHT22;10637;47.970;7.830;2023-04-19T12:31:35;14.50;99.90
20957;DHT22;10637;47.970;7.830;2023-04-19T12:36:37;14.40;99.90
20957;DHT22;10637;47.970;7.830;2023-04-19T12:41:39;14.50;99.90
20957;DHT22;10637;47.970;7.830;2023-04-19T12:46:40;14.60;99.90
20957;DHT22;10637;47.970;7.830;2023-04-19T12:51:42;14.70;99.90
20957;DHT22;10637;47.970;7.830;2023-04-19T12:56:44;15.00;99.90
20957;DHT22;10637;47.970;7.830;2023-04-19T13:01:46;15.10;99.90
20957;DHT22;10637;47.970;7.830;2023-04-19T13:06:48;15.20;99.90
20957;DHT22;10637;47.970;7.830;2023-04-19T13:11:49;15.40;99.90
20957;DHT22;10637;47.970;7.830;2023-04-19T13:16:51;15.60;99.90
20957;DHT22;10637;47.970;7.830;2023-04-19T13:21:53;15.80;99.90
20957;DHT22;10637;47.970;7.830;2023-04-19T13:26:55;16.20;99.90
20957;DHT22;10637;47.970;7.830;2023-04-19T13:31:57;16.10;99.90
20957;DHT22;10637;47.970;7.830;2023-04-19T13:36:59;16.20;99.90
20957;DHT22;10637;47.970;7.830;2023-04-19T13:42:01;16.20;99.90
20957;DHT22;10637;47.970;7.830;2023-04-19T13:47:02;16.00;99.90
20957;DHT22;10637;47.970;7.830;2023-04-19T13:52:05;15.80;99.90
20957;DHT22;10637;47.970;7.830;2023-04-19T13:57:07;15.70;99.90
20957;DHT22;10637;47.970;7.830;2023-04-19T14:02:09;15.60;99.90
20957;DHT22;10637;47.970;7.830;2023-04-19T14:07:11;15.40;99.90
20957;DHT22;10637;47.970;7.830;2023-04-19T14:12:12;15.60;99.90
20957;DHT22;10637;47.970;7.830;2023-04-19T14:17:14;15.60;99.90
20957;DHT22;10637;47.970;7.830;2023-04-19T14:22:16;15.50;99.90
20957;DHT22;10637;47.970;7.830;2023-04-19T14:27:18;15.50;99.90
20957;DHT22;10637;47.970;7.830;2023-04-19T14:32:20;15.40;99.90
20957;DHT22;10637;47.970;7.830;2023-04-19T14:37:27;15.20;99.90
20957;DHT22;10637;47.970;7.830;2023-04-19T14:42:29;15.00;99.90
20957;DHT22;10637;47.970;7.830;2023-04-19T14:47:31;14.80;99.90
20957;DHT22;10637;47.970;7.830;2023-04-19T14:52:33;14.60;99.90
20957;DHT22;10637;47.970;7.830;2023-04-19T14:57:35;14.70;99.90
20957;DHT22;10637;47.970;7.830;2023-04-19T15:02:37;14.50;99.90
20957;DHT22;10637;47.970;7.830;2023-04-19T15:07:39;14.70;99.90
20957;DHT22;10637;47.970;7.830;2023-04-19T15:12:40;14.70;99.90
20957;DHT22;10637;47.970;7.830;2023-04-19T15:17:42;14.90;99.90
20957;DHT22;10637;47.970;7.830;2023-04-19T15:22:44;15.00;99.90
20957;DHT22;10637;47.970;7.830;2023-04-19T15:27:46;15.10;99.90
20957;DHT22;10637;47.970;7.830;2023-04-19T15:32:47;15.10;99.90
20957;DHT22;10637;47.970;7.830;2023-04-19T15:37:49;15.10;99.90
20957;DHT22;10637;47.970;7.830;2023-04-19T15:42:51;15.30;99.90
20957;DHT22;10637;47.970;7.830;2023-04-19T15:47:53;15.50;99.90
20957;DHT22;10637;47.970;7.830;2023-04-19T15:52:55;15.60;99.90
20957;DHT22;10637;47.970;7.830;2023-04-19T15:57:57;15.60;99.90
20957;DHT22;10637;47.970;7.830;2023-04-19T16:02:59;15.40;99.90
20957;DHT22;10637;47.970;7.830;2023-04-19T16:08:05;15.10;99.90
20957;DHT22;10637;47.970;7.830;2023-04-19T16:13:08;15.20;99.90
20957;DHT22;10637;47.970;7.830;2023-04-19T16:18:10;15.10;99.90
20957;DHT22;10637;47.970;7.830;2023-04-19T16:23:12;15.00;99.90
20957;DHT22;10637;47.970;7.830;2023-04-19T16:28:15;14.80;99.90
20957;DHT22;10637;47.970;7.830;2023-04-19T16:33:17;14.60;99.90
20957;DHT22;10637;47.970;7.830;2023-04-19T16:38:18;14.50;99.90
20957;DHT22;10637;47.970;7.830;2023-04-19T16:43:20;14.30;99.90
20957;DHT22;10637;47.970;7.830;2023-04-19T16:48:22;14.20;99.90
20957;DHT22;10637;47.970;7.830;2023-04-19T16:53:24;14.10;99.90
20957;DHT22;10637;47.970;7.830;2023-04-19T16:58:26;13.90;99.90
20957;DHT22;10637;47.970;7.830;2023-04-19T17:03:27;13.80;99.90
20957;DHT22;10637;47.970;7.830;2023-04-19T17:08:32;13.20;99.90
20957;DHT22;10637;47.970;7.830;2023-04-19T17:13:34;13.10;99.90
20957;DHT22;10637;47.970;7.830;2023-04-19T17:18:37;12.80;99.90
20957;DHT22;10637;47.970;7.830;2023-04-19T17:23:39;12.30;99.90
20957;DHT22;10637;47.970;7.830;2023-04-19T17:28:40;12.30;99.90
20957;DHT22;10637;47.970;7.830;2023-04-19T17:33:42;12.20;99.90
20957;DHT22;10637;47.970;7.830;2023-04-19T17:38:44;12.10;99.90
20957;DHT22;10637;47.970;7.830;2023-04-19T17:43:46;12.10;99.90
20957;DHT22;10637;47.970;7.830;2023-04-19T17:48:50;12.10;99.90
20957;DHT22;10637;47.970;7.830;2023-04-19T17:53:52;12.00;99.90
20957;DHT22;10637;47.970;7.830;2023-04-19T17:58:54;12.00;99.90
20957;DHT22;10637;47.970;7.830;2023-04-19T18:03:56;12.10;99.90
20957;DHT22;10637;47.970;7.830;2023-04-19T18:08:58;12.00;99.90
20957;DHT22;10637;47.970;7.830;2023-04-19T18:14:00;12.00;99.90
20957;DHT22;10637;47.970;7.830;2023-04-19T18:19:02;11.80;99.90
20957;DHT22;10637;47.970;7.830;2023-04-19T18:24:04;11.80;99.90
20957;DHT22;10637;47.970;7.830;2023-04-19T18:29:06;11.60;99.90
20957;DHT22;10637;47.970;7.830;2023-04-19T18:34:08;11.40;99.90
20957;DHT22;10637;47.970;7.830;2023-04-19T18:39:13;11.40;99.90
20957;DHT22;10637;47.970;7.830;2023-04-19T18:44:15;11.50;99.90
20957;DHT22;10637;47.970;7.830;2023-04-19T18:49:36;11.20;99.90
20957;DHT22;10637;47.970;7.830;2023-04-19T18:54:38;11.10;99.90
20957;DHT22;10637;47.970;7.830;2023-04-19T18:59:40;11.00;99.90
20957;DHT22;10637;47.970;7.830;2023-04-19T19:04:42;10.90;99.90
20957;DHT22;10637;47.970;7.830;2023-04-19T19:09:58;10.60;99.90
20957;DHT22;10637;47.970;7.830;2023-04-19T19:15:04;10.40;99.90
20957;DHT22;10637;47.970;7.830;2023-04-19T19:20:07;10.30;99.90
20957;DHT22;10637;47.970;7.830;2023-04-19T19:25:11;10.30;99.90
20957;DHT22;10637;47.970;7.830;2023-04-19T19:30:13;10.30;99.90
20957;DHT22;10637;47.970;7.830;2023-04-19T19:35:15;10.00;99.90
20957;DHT22;10637;47.970;7.830;2023-04-19T19:40:17;9.80;99.90
20957;DHT22;10637;47.970;7.830;2023-04-19T19:45:29;9.50;99.90
20957;DHT22;10637;47.970;7.830;2023-04-19T19:50:31;9.40;99.90
20957;DHT22;10637;47.970;7.830;2023-04-19T19:55:36;9.30;99.90
20957;DHT22;10637;47.970;7.830;2023-04-19T20:00:38;9.30;99.90
20957;DHT22;10637;47.970;7.830;2023-04-19T20:05:47;9.10;99.90
20957;DHT22;10637;47.970;7.830;2023-04-19T20:10:49;8.90;99.90
20957;DHT22;10637;47.970;7.830;2023-04-19T20:15:51;8.80;99.90
20957;DHT22;10637;47.970;7.830;2023-04-19T20:20:53;8.90;99.90
20957;DHT22;10637;47.970;7.830;2023-04-19T20:25:55;8.90;99.90
20957;DHT22;10637;47.970;7.830;2023-04-19T20:30:57;9.00;99.90
20957;DHT22;10637;47.970;7.830;2023-04-19T20:35:59;9.00;99.90
20957;DHT22;10637;47.970;7.830;2023-04-19T20:41:02;9.10;99.90
20957;DHT22;10637;47.970;7.830;2023-04-19T20:46:04;9.20;99.90
20957;DHT22;10637;47.970;7.830;2023-04-19T20:51:07;9.30;99.90
20957;DHT22;10637;47.970;7.830;2023-04-19T20:56:09;9.50;99.90
20957;DHT22;10637;47.970;7.830;2023-04-19T21:01:10;9.40;99.90
20957;DHT22;10637;47.970;7.830;2023-04-19T21:06:17;9.50;99.90
20957;DHT22;10637;47.970;7.830;2023-04-19T21:11:23;9.40;99.90
20957;DHT22;10637;47.970;7.830;2023-04-19T21:16:25;9.40;99.90
20957;DHT22;10637;47.970;7.830;2023-04-19T21:21:27;9.50;99.90
20957;DHT22;10637;47.970;7.830;2023-04-19T21:26:30;9.40;99.90
20957;DHT22;10637;47.970;7.830;2023-04-19T21:31:32;9.30;99.90
20957;DHT22;10637;47.970;7.830;2023-04-19T21:36:34;9.40;99.90
20957;DHT22;10637;47.970;7.830;2023-04-19T21:41:36;9.20;99.90
20957;DHT22;10637;47.970;7.830;2023-04-19T21:46:38;9.30;99.90
20957;DHT22;10637;47.970;7.830;2023-04-19T21:51:39;9.40;99.90
20957;DHT22;10637;47.970;7.830;2023-04-19T21:56:41;9.50;99.90
20957;DHT22;10637;47.970;7.830;2023-04-19T22:01:43;9.30;99.90
20957;DHT22;10637;47.970;7.830;2023-04-19T22:06:45;9.40;99.90
20957;DHT22;10637;47.970;7.830;2023-04-19T22:11:47;9.40;99.90
20957;DHT22;10637;47.970;7.830;2023-04-19T22:16:50;9.40;99.90
20957;DHT22;10637;47.970;7.830;2023-04-19T22:21:54;9.40;99.90
20957;DHT22;10637;47.970;7.830;2023-04-19T22:26:56;9.40;99.90
20957;DHT22;10637;47.970;7.830;2023-04-19T22:31:59;9.30;99.90
20957;DHT22;10637;47.970;7.830;2023-04-19T22:37:01;9.40;99.90
20957;DHT22;10637;47.970;7.830;2023-04-19T22:42:02;9.50;99.90
20957;DHT22;10637;47.970;7.830;2023-04-19T22:47:04;9.40;99.90
20957;DHT22;10637;47.970;7.830;2023-04-19T22:52:07;9.40;99.90
20957;DHT22;10637;47.970;7.830;2023-04-19T22:57:08;9.20;99.90
20957;DHT22;10637;47.970;7.830;2023-04-19T23:02:11;9.10;99.90
20957;DHT22;10637;47.970;7.830;2023-04-19T23:07:13;9.10;99.90
20957;DHT22;10637;47.970;7.830;2023-04-19T23:12:15;9.10;99.90
20957;DHT22;10637;47.970;7.830;2023-04-19T23:17:17;9.20;99.90
20957;DHT22;10637;47.970;7.830;2023-04-19T23:22:20;9.20;99.90
20957;DHT22;10637;47.970;7.830;2023-04-19T23:27:22;9.10;99.90
20957;DHT22;10637;47.970;7.830;2023-04-19T23:32:24;9.20;99.90
20957;DHT22;10637;47.970;7.830;2023-04-19T23:37:25;9.20;99.90
20957;DHT22;10637;47.970;7.830;2023-04-19T23:42:27;9.10;99.90
20957;DHT22;10637;47.970;7.830;2023-04-19T23:47:29;9.00;99.90
20957;DHT22;10637;47.970;7.830;2023-04-19T23:52:31;9.10;99.90
20957;DHT22;10637;47.970;7.830;2023-04-19T23:57:33;9.00;99.90
